sensor_id;sensor_type;location;lat;lon;timestamp;temperature;humidity
3312;DHT22;1668;49.648;8.570;2023-06-04T00:02:05;18.40;99.90
3312;DHT22;1668;49.648;8.570;2023-06-04T00:04:32;18.30;99.90
3312;DHT22;1668;49.648;8.570;2023-06-04T00:06:59;18.40;99.90
3312;DHT22;1668;49.648;8.570;2023-06-04T00:09:26;18.40;99.90
3312;DHT22;1668;49.648;8.570;2023-06-04T00:11:52;18.30;99.90
3312;DHT22;1668;49.648;8.570;2023-06-04T00:14:19;18.30;99.90
3312;DHT22;1668;49.648;8.570;2023-06-04T00:16:46;18.30;99.90
3312;DHT22;1668;49.648;8.570;2023-06-04T00:19:14;18.30;99.90
3312;DHT22;1668;49.648;8.570;2023-06-04T00:21:41;18.20;99.90
3312;DHT22;1668;49.648;8.570;2023-06-04T00:24:08;18.30;99.90
3312;DHT22;1668;49.648;8.570;2023-06-04T00:26:37;18.20;99.90
3312;DHT22;1668;49.648;8.570;2023-06-04T00:29:04;18.20;99.90
3312;DHT22;1668;49.648;8.570;2023-06-04T00:31:31;18.20;99.90
3312;DHT22;1668;49.648;8.570;2023-06-04T00:33:58;18.20;99.90
3312;DHT22;1668;49.648;8.570;2023-06-04T00:36:26;18.20;99.90
3312;DHT22;1668;49.648;8.570;2023-06-04T00:38:53;18.10;99.90
3312;DHT22;1668;49.648;8.570;2023-06-04T00:41:20;18.10;99.90
3312;DHT22;1668;49.648;8.570;2023-06-04T00:43:47;18.10;99.90
3312;DHT22;1668;49.648;8.570;2023-06-04T00:46:22;18.00;99.90
3312;DHT22;1668;49.648;8.570;2023-06-04T00:48:51;18.00;99.90
3312;DHT22;1668;49.648;8.570;2023-06-04T00:51:18;17.90;99.90
3312;DHT22;1668;49.648;8.570;2023-06-04T00:53:47;17.90;99.90
3312;DHT22;1668;49.648;8.570;2023-06-04T00:56:14;17.90;99.90
3312;DHT22;1668;49.648;8.570;2023-06-04T00:58:42;17.80;99.90
3312;DHT22;1668;49.648;8.570;2023-06-04T01:01:15;17.80;99.90
3312;DHT22;1668;49.648;8.570;2023-06-04T01:03:50;17.80;99.90
3312;DHT22;1668;49.648;8.570;2023-06-04T01:06:21;17.80;99.90
3312;DHT22;1668;49.648;8.570;2023-06-04T01:08:52;17.80;99.90
3312;DHT22;1668;49.648;8.570;2023-06-04T01:11:31;17.70;99.90
3312;DHT22;1668;49.648;8.570;2023-06-04T01:13:58;17.60;99.90
3312;DHT22;1668;49.648;8.570;2023-06-04T01:16:26;17.50;99.90
3312;DHT22;1668;49.648;8.570;2023-06-04T01:18:56;17.60;99.90
3312;DHT22;1668;49.648;8.570;2023-06-04T01:21:26;17.60;99.90
3312;DHT22;1668;49.648;8.570;2023-06-04T01:23:59;17.60;99.90
3312;DHT22;1668;49.648;8.570;2023-06-04T01:26:29;17.50;99.90
3312;DHT22;1668;49.648;8.570;2023-06-04T01:28:56;17.50;99.90
3312;DHT22;1668;49.648;8.570;2023-06-04T01:31:24;17.50;99.90
3312;DHT22;1668;49.648;8.570;2023-06-04T01:33:52;17.50;99.90
3312;DHT22;1668;49.648;8.570;2023-06-04T01:36:19;17.50;99.90
3312;DHT22;1668;49.648;8.570;2023-06-04T01:38:46;17.50;99.90
3312;DHT22;1668;49.648;8.570;2023-06-04T01:41:14;17.60;99.90
3312;DHT22;1668;49.648;8.570;2023-06-04T01:43:41;17.60;99.90
3312;DHT22;1668;49.648;8.570;2023-06-04T01:46:08;17.50;99.90
3312;DHT22;1668;49.648;8.570;2023-06-04T01:48:34;17.50;99.90
3312;DHT22;1668;49.648;8.570;2023-06-04T01:51:02;17.50;99.90
3312;DHT22;1668;49.648;8.570;2023-06-04T01:53:29;17.50;99.90
3312;DHT22;1668;49.648;8.570;2023-06-04T01:55:56;17.50;99.90
3312;DHT22;1668;49.648;8.570;2023-06-04T01:58:25;17.50;99.90
3312;DHT22;1668;49.648;8.570;2023-06-04T02:00:54;17.40;99.90
3312;DHT22;1668;49.648;8.570;2023-06-04T02:03:21;17.30;99.90
3312;DHT22;1668;49.648;8.570;2023-06-04T02:05:48;17.10;99.90
3312;DHT22;1668;49.648;8.570;2023-06-04T02:08:15;17.10;99.90
3312;DHT22;1668;49.648;8.570;2023-06-04T02:10:45;16.90;99.90
3312;DHT22;1668;49.648;8.570;2023-06-04T02:13:12;16.70;99.90
3312;DHT22;1668;49.648;8.570;2023-06-04T02:15:41;16.80;99.90
3312;DHT22;1668;49.648;8.570;2023-06-04T02:18:13;16.80;99.90
3312;DHT22;1668;49.648;8.570;2023-06-04T02:20:42;16.80;99.90
3312;DHT22;1668;49.648;8.570;2023-06-04T02:23:10;16.50;99.90
3312;DHT22;1668;49.648;8.570;2023-06-04T02:25:37;16.30;99.90
3312;DHT22;1668;49.648;8.570;2023-06-04T02:28:04;16.20;99.90
3312;DHT22;1668;49.648;8.570;2023-06-04T02:30:31;16.10;99.90
3312;DHT22;1668;49.648;8.570;2023-06-04T02:32:59;16.00;99.90
3312;DHT22;1668;49.648;8.570;2023-06-04T02:35:27;15.80;99.90
3312;DHT22;1668;49.648;8.570;2023-06-04T02:37:54;15.80;99.90
3312;DHT22;1668;49.648;8.570;2023-06-04T02:40:22;15.70;99.90
3312;DHT22;1668;49.648;8.570;2023-06-04T02:42:49;15.70;99.90
3312;DHT22;1668;49.648;8.570;2023-06-04T02:45:15;15.70;99.90
3312;DHT22;1668;49.648;8.570;2023-06-04T02:47:42;15.80;99.90
3312;DHT22;1668;49.648;8.570;2023-06-04T02:50:11;15.70;99.90
3312;DHT22;1668;49.648;8.570;2023-06-04T02:52:38;15.70;99.90
3312;DHT22;1668;49.648;8.570;2023-06-04T02:55:07;15.70;99.90
3312;DHT22;1668;49.648;8.570;2023-06-04T02:57:34;15.70;99.90
3312;DHT22;1668;49.648;8.570;2023-06-04T03:00:01;15.70;99.90
3312;DHT22;1668;49.648;8.570;2023-06-04T03:02:34;15.60;99.90
3312;DHT22;1668;49.648;8.570;2023-06-04T03:05:01;15.60;99.90
3312;DHT22;1668;49.648;8.570;2023-06-04T03:07:29;15.60;99.90
3312;DHT22;1668;49.648;8.570;2023-06-04T03:09:56;15.40;99.90
3312;DHT22;1668;49.648;8.570;2023-06-04T03:12:23;15.20;99.90
3312;DHT22;1668;49.648;8.570;2023-06-04T03:14:50;15.20;99.90
3312;DHT22;1668;49.648;8.570;2023-06-04T03:17:17;15.20;99.90
3312;DHT22;1668;49.648;8.570;2023-06-04T03:19:44;15.20;99.90
3312;DHT22;1668;49.648;8.570;2023-06-04T03:22:11;15.30;99.90
3312;DHT22;1668;49.648;8.570;2023-06-04T03:24:41;15.10;99.90
3312;DHT22;1668;49.648;8.570;2023-06-04T03:27:08;15.10;99.90
3312;DHT22;1668;49.648;8.570;2023-06-04T03:29:35;15.20;99.90
3312;DHT22;1668;49.648;8.570;2023-06-04T03:32:03;15.10;99.90
3312;DHT22;1668;49.648;8.570;2023-06-04T03:34:30;15.10;99.90
3312;DHT22;1668;49.648;8.570;2023-06-04T03:36:57;15.00;99.90
3312;DHT22;1668;49.648;8.570;2023-06-04T03:39:25;15.00;99.90
3312;DHT22;1668;49.648;8.570;2023-06-04T03:41:54;14.90;99.90
3312;DHT22;1668;49.648;8.570;2023-06-04T03:44:21;14.80;99.90
3312;DHT22;1668;49.648;8.570;2023-06-04T03:46:48;14.80;99.90
3312;DHT22;1668;49.648;8.570;2023-06-04T03:49:15;14.80;99.90
3312;DHT22;1668;49.648;8.570;2023-06-04T03:51:43;14.80;99.90
3312;DHT22;1668;49.648;8.570;2023-06-04T03:54:10;14.80;99.90
3312;DHT22;1668;49.648;8.570;2023-06-04T03:56:37;14.70;99.90
3312;DHT22;1668;49.648;8.570;2023-06-04T03:59:06;14.70;99.90
3312;DHT22;1668;49.648;8.570;2023-06-04T04:01:33;14.80;99.90
3312;DHT22;1668;49.648;8.570;2023-06-04T04:04:00;14.60;99.90
3312;DHT22;1668;49.648;8.570;2023-06-04T04:06:26;14.60;99.90
3312;DHT22;1668;49.648;8.570;2023-06-04T04:08:53;14.60;99.90
3312;DHT22;1668;49.648;8.570;2023-06-04T04:11:20;14.70;99.90
3312;DHT22;1668;49.648;8.570;2023-06-04T04:13:48;14.70;99.90
3312;DHT22;1668;49.648;8.570;2023-06-04T04:16:16;14.70;99.90
3312;DHT22;1668;49.648;8.570;2023-06-04T04:18:43;14.60;99.90
3312;DHT22;1668;49.648;8.570;2023-06-04T04:21:10;14.60;99.90
3312;DHT22;1668;49.648;8.570;2023-06-04T04:23:38;14.70;99.90
3312;DHT22;1668;49.648;8.570;2023-06-04T04:26:06;14.70;99.90
3312;DHT22;1668;49.648;8.570;2023-06-04T04:28:32;14.70;99.90
3312;DHT22;1668;49.648;8.570;2023-06-04T04:31:00;14.60;99.90
3312;DHT22;1668;49.648;8.570;2023-06-04T04:33:29;14.60;99.90
3312;DHT22;1668;49.648;8.570;2023-06-04T04:35:58;14.70;99.90
3312;DHT22;1668;49.648;8.570;2023-06-04T04:38:26;14.70;99.90
3312;DHT22;1668;49.648;8.570;2023-06-04T04:40:54;14.70;99.90
3312;DHT22;1668;49.648;8.570;2023-06-04T04:43:29;14.70;99.90
3312;DHT22;1668;49.648;8.570;2023-06-04T04:45:56;14.80;99.90
3312;DHT22;1668;49.648;8.570;2023-06-04T04:48:24;14.70;99.90
3312;DHT22;1668;49.648;8.570;2023-06-04T04:50:52;14.80;99.90
3312;DHT22;1668;49.648;8.570;2023-06-04T04:53:19;14.80;99.90
3312;DHT22;1668;49.648;8.570;2023-06-04T04:55:46;14.80;99.90
3312;DHT22;1668;49.648;8.570;2023-06-04T04:58:13;14.80;99.90
3312;DHT22;1668;49.648;8.570;2023-06-04T05:00:40;14.80;99.90
3312;DHT22;1668;49.648;8.570;2023-06-04T05:03:07;14.90;99.90
3312;DHT22;1668;49.648;8.570;2023-06-04T05:05:34;14.90;99.90
3312;DHT22;1668;49.648;8.570;2023-06-04T05:08:02;14.90;99.90
3312;DHT22;1668;49.648;8.570;2023-06-04T05:10:29;15.00;99.90
3312;DHT22;1668;49.648;8.570;2023-06-04T05:12:57;15.00;99.90
3312;DHT22;1668;49.648;8.570;2023-06-04T05:15:25;15.10;99.90
3312;DHT22;1668;49.648;8.570;2023-06-04T05:17:55;15.00;99.90
3312;DHT22;1668;49.648;8.570;2023-06-04T05:20:23;15.10;99.90
3312;DHT22;1668;49.648;8.570;2023-06-04T05:22:50;15.00;99.90
3312;DHT22;1668;49.648;8.570;2023-06-04T05:25:19;15.10;99.90
3312;DHT22;1668;49.648;8.570;2023-06-04T05:27:46;15.10;99.90
3312;DHT22;1668;49.648;8.570;2023-06-04T05:30:16;15.10;99.90
3312;DHT22;1668;49.648;8.570;2023-06-04T05:32:43;15.10;99.90
3312;DHT22;1668;49.648;8.570;2023-06-04T05:35:09;15.10;99.90
3312;DHT22;1668;49.648;8.570;2023-06-04T05:37:38;15.20;99.90
3312;DHT22;1668;49.648;8.570;2023-06-04T05:40:07;15.20;99.90
3312;DHT22;1668;49.648;8.570;2023-06-04T05:42:37;15.20;99.90
3312;DHT22;1668;49.648;8.570;2023-06-04T05:45:05;15.20;99.90
3312;DHT22;1668;49.648;8.570;2023-06-04T05:47:34;15.20;99.90
3312;DHT22;1668;49.648;8.570;2023-06-04T05:50:00;15.30;99.90
3312;DHT22;1668;49.648;8.570;2023-06-04T05:52:28;15.30;99.90
3312;DHT22;1668;49.648;8.570;2023-06-04T05:54:54;15.40;99.90
3312;DHT22;1668;49.648;8.570;2023-06-04T05:57:21;15.40;99.90
3312;DHT22;1668;49.648;8.570;2023-06-04T05:59:49;15.40;99.90
3312;DHT22;1668;49.648;8.570;2023-06-04T06:02:16;15.50;99.90
3312;DHT22;1668;49.648;8.570;2023-06-04T06:04:43;15.50;99.90
3312;DHT22;1668;49.648;8.570;2023-06-04T06:07:10;15.60;99.90
3312;DHT22;1668;49.648;8.570;2023-06-04T06:09:37;15.60;99.90
3312;DHT22;1668;49.648;8.570;2023-06-04T06:12:04;15.60;99.90
3312;DHT22;1668;49.648;8.570;2023-06-04T06:14:31;15.60;99.90
3312;DHT22;1668;49.648;8.570;2023-06-04T06:17:00;15.70;99.90
3312;DHT22;1668;49.648;8.570;2023-06-04T06:19:28;15.70;99.90
3312;DHT22;1668;49.648;8.570;2023-06-04T06:21:55;15.80;99.90
3312;DHT22;1668;49.648;8.570;2023-06-04T06:24:24;15.80;99.90
3312;DHT22;1668;49.648;8.570;2023-06-04T06:26:51;15.90;99.90
3312;DHT22;1668;49.648;8.570;2023-06-04T06:29:17;15.90;99.90
3312;DHT22;1668;49.648;8.570;2023-06-04T06:31:44;16.00;99.90
3312;DHT22;1668;49.648;8.570;2023-06-04T06:34:13;16.10;99.90
3312;DHT22;1668;49.648;8.570;2023-06-04T06:36:40;16.10;99.90
3312;DHT22;1668;49.648;8.570;2023-06-04T06:39:07;16.20;99.90
3312;DHT22;1668;49.648;8.570;2023-06-04T06:41:34;16.20;99.90
3312;DHT22;1668;49.648;8.570;2023-06-04T06:44:01;16.40;99.90
3312;DHT22;1668;49.648;8.570;2023-06-04T06:46:28;16.50;99.90
3312;DHT22;1668;49.648;8.570;2023-06-04T06:48:55;16.50;99.90
3312;DHT22;1668;49.648;8.570;2023-06-04T06:51:23;16.60;99.90
3312;DHT22;1668;49.648;8.570;2023-06-04T06:53:50;16.60;99.90
3312;DHT22;1668;49.648;8.570;2023-06-04T06:56:17;16.70;99.90
3312;DHT22;1668;49.648;8.570;2023-06-04T06:58:44;16.80;99.90
3312;DHT22;1668;49.648;8.570;2023-06-04T07:01:12;16.80;99.90
3312;DHT22;1668;49.648;8.570;2023-06-04T07:03:39;16.90;99.90
3312;DHT22;1668;49.648;8.570;2023-06-04T07:06:06;16.90;99.90
3312;DHT22;1668;49.648;8.570;2023-06-04T07:08:34;17.00;99.90
3312;DHT22;1668;49.648;8.570;2023-06-04T07:11:02;17.00;99.90
3312;DHT22;1668;49.648;8.570;2023-06-04T07:13:29;17.00;99.90
3312;DHT22;1668;49.648;8.570;2023-06-04T07:15:58;17.10;99.90
3312;DHT22;1668;49.648;8.570;2023-06-04T07:18:24;17.10;99.90
3312;DHT22;1668;49.648;8.570;2023-06-04T07:20:51;17.10;99.90
3312;DHT22;1668;49.648;8.570;2023-06-04T07:23:18;17.20;99.90
3312;DHT22;1668;49.648;8.570;2023-06-04T07:25:47;17.30;99.90
3312;DHT22;1668;49.648;8.570;2023-06-04T07:28:14;17.30;99.90
3312;DHT22;1668;49.648;8.570;2023-06-04T07:30:41;17.40;99.90
3312;DHT22;1668;49.648;8.570;2023-06-04T07:33:08;17.50;99.90
3312;DHT22;1668;49.648;8.570;2023-06-04T07:35:35;17.50;99.90
3312;DHT22;1668;49.648;8.570;2023-06-04T07:38:02;17.50;99.90
3312;DHT22;1668;49.648;8.570;2023-06-04T07:40:29;17.60;99.90
3312;DHT22;1668;49.648;8.570;2023-06-04T07:42:57;17.70;99.90
3312;DHT22;1668;49.648;8.570;2023-06-04T07:45:24;17.80;99.90
3312;DHT22;1668;49.648;8.570;2023-06-04T07:47:51;17.90;99.90
3312;DHT22;1668;49.648;8.570;2023-06-04T07:50:17;18.00;99.90
3312;DHT22;1668;49.648;8.570;2023-06-04T07:52:44;18.20;99.90
3312;DHT22;1668;49.648;8.570;2023-06-04T07:55:11;18.20;99.90
3312;DHT22;1668;49.648;8.570;2023-06-04T07:57:38;18.20;99.90
3312;DHT22;1668;49.648;8.570;2023-06-04T08:00:08;18.30;99.90
3312;DHT22;1668;49.648;8.570;2023-06-04T08:02:35;18.40;99.90
3312;DHT22;1668;49.648;8.570;2023-06-04T08:05:02;18.40;99.90
3312;DHT22;1668;49.648;8.570;2023-06-04T08:07:29;18.60;99.90
3312;DHT22;1668;49.648;8.570;2023-06-04T08:09:56;18.70;99.90
3312;DHT22;1668;49.648;8.570;2023-06-04T08:12:23;18.70;99.90
3312;DHT22;1668;49.648;8.570;2023-06-04T08:14:50;18.90;99.90
3312;DHT22;1668;49.648;8.570;2023-06-04T08:17:18;18.90;99.90
3312;DHT22;1668;49.648;8.570;2023-06-04T08:19:45;19.00;99.90
3312;DHT22;1668;49.648;8.570;2023-06-04T08:22:11;19.00;99.90
3312;DHT22;1668;49.648;8.570;2023-06-04T08:24:38;19.10;99.90
3312;DHT22;1668;49.648;8.570;2023-06-04T08:27:05;19.20;99.90
3312;DHT22;1668;49.648;8.570;2023-06-04T08:29:34;19.30;99.90
3312;DHT22;1668;49.648;8.570;2023-06-04T08:32:01;19.40;99.90
3312;DHT22;1668;49.648;8.570;2023-06-04T08:34:29;19.50;99.90
3312;DHT22;1668;49.648;8.570;2023-06-04T08:36:56;19.70;99.90
3312;DHT22;1668;49.648;8.570;2023-06-04T08:39:23;19.70;99.90
3312;DHT22;1668;49.648;8.570;2023-06-04T08:41:52;19.70;99.90
3312;DHT22;1668;49.648;8.570;2023-06-04T08:44:20;19.80;99.90
3312;DHT22;1668;49.648;8.570;2023-06-04T08:46:51;19.80;99.90
3312;DHT22;1668;49.648;8.570;2023-06-04T08:49:19;20.00;99.90
3312;DHT22;1668;49.648;8.570;2023-06-04T08:51:49;20.00;99.90
3312;DHT22;1668;49.648;8.570;2023-06-04T08:54:16;20.20;99.90
3312;DHT22;1668;49.648;8.570;2023-06-04T08:56:43;20.30;99.90
3312;DHT22;1668;49.648;8.570;2023-06-04T08:59:10;20.50;99.90
3312;DHT22;1668;49.648;8.570;2023-06-04T09:01:39;20.50;99.90
3312;DHT22;1668;49.648;8.570;2023-06-04T09:04:10;20.50;99.90
3312;DHT22;1668;49.648;8.570;2023-06-04T09:06:39;20.60;99.90
3312;DHT22;1668;49.648;8.570;2023-06-04T09:09:09;20.80;99.90
3312;DHT22;1668;49.648;8.570;2023-06-04T09:11:41;21.10;99.90
3312;DHT22;1668;49.648;8.570;2023-06-04T09:14:11;21.10;99.90
3312;DHT22;1668;49.648;8.570;2023-06-04T09:16:46;21.40;99.90
3312;DHT22;1668;49.648;8.570;2023-06-04T09:19:13;21.40;99.90
3312;DHT22;1668;49.648;8.570;2023-06-04T09:21:50;21.50;99.90
3312;DHT22;1668;49.648;8.570;2023-06-04T09:24:19;21.60;99.90
3312;DHT22;1668;49.648;8.570;2023-06-04T09:26:46;21.60;99.90
3312;DHT22;1668;49.648;8.570;2023-06-04T09:29:14;21.70;99.90
3312;DHT22;1668;49.648;8.570;2023-06-04T09:31:41;21.80;99.90
3312;DHT22;1668;49.648;8.570;2023-06-04T09:34:07;22.00;99.90
3312;DHT22;1668;49.648;8.570;2023-06-04T09:36:35;22.10;99.90
3312;DHT22;1668;49.648;8.570;2023-06-04T09:39:03;22.20;99.90
3312;DHT22;1668;49.648;8.570;2023-06-04T09:41:32;22.30;99.90
3312;DHT22;1668;49.648;8.570;2023-06-04T09:44:00;22.30;99.90
3312;DHT22;1668;49.648;8.570;2023-06-04T09:46:28;22.40;99.90
3312;DHT22;1668;49.648;8.570;2023-06-04T09:49:00;22.50;99.90
3312;DHT22;1668;49.648;8.570;2023-06-04T09:51:29;22.60;99.90
3312;DHT22;1668;49.648;8.570;2023-06-04T09:53:58;22.80;99.90
3312;DHT22;1668;49.648;8.570;2023-06-04T09:56:26;22.90;99.90
3312;DHT22;1668;49.648;8.570;2023-06-04T09:58:56;23.00;99.90
3312;DHT22;1668;49.648;8.570;2023-06-04T10:01:27;23.00;99.90
3312;DHT22;1668;49.648;8.570;2023-06-04T10:03:57;23.10;99.90
3312;DHT22;1668;49.648;8.570;2023-06-04T10:06:25;23.20;99.90
3312;DHT22;1668;49.648;8.570;2023-06-04T10:08:54;23.20;99.90
3312;DHT22;1668;49.648;8.570;2023-06-04T10:11:26;23.20;99.90
3312;DHT22;1668;49.648;8.570;2023-06-04T10:14:02;23.20;99.90
3312;DHT22;1668;49.648;8.570;2023-06-04T10:16:30;23.10;99.90
3312;DHT22;1668;49.648;8.570;2023-06-04T10:18:59;23.10;99.90
3312;DHT22;1668;49.648;8.570;2023-06-04T10:21:26;23.20;99.90
3312;DHT22;1668;49.648;8.570;2023-06-04T10:23:57;23.30;99.90
3312;DHT22;1668;49.648;8.570;2023-06-04T10:26:25;23.40;99.90
3312;DHT22;1668;49.648;8.570;2023-06-04T10:28:52;23.40;99.90
3312;DHT22;1668;49.648;8.570;2023-06-04T10:31:21;23.60;99.90
3312;DHT22;1668;49.648;8.570;2023-06-04T10:33:48;23.80;99.90
3312;DHT22;1668;49.648;8.570;2023-06-04T10:36:19;23.90;99.90
3312;DHT22;1668;49.648;8.570;2023-06-04T10:38:47;23.90;99.90
3312;DHT22;1668;49.648;8.570;2023-06-04T10:41:14;24.00;99.90
3312;DHT22;1668;49.648;8.570;2023-06-04T10:43:42;24.10;99.90
3312;DHT22;1668;49.648;8.570;2023-06-04T10:46:13;24.30;99.90
3312;DHT22;1668;49.648;8.570;2023-06-04T10:48:52;24.40;99.90
3312;DHT22;1668;49.648;8.570;2023-06-04T10:51:29;24.40;99.90
3312;DHT22;1668;49.648;8.570;2023-06-04T10:53:57;24.40;99.90
3312;DHT22;1668;49.648;8.570;2023-06-04T10:56:25;24.40;99.90
3312;DHT22;1668;49.648;8.570;2023-06-04T10:58:52;24.60;99.90
3312;DHT22;1668;49.648;8.570;2023-06-04T11:01:24;24.60;99.90
3312;DHT22;1668;49.648;8.570;2023-06-04T11:03:52;24.60;99.90
3312;DHT22;1668;49.648;8.570;2023-06-04T11:06:19;24.40;99.90
3312;DHT22;1668;49.648;8.570;2023-06-04T11:08:46;24.40;99.90
3312;DHT22;1668;49.648;8.570;2023-06-04T11:11:14;24.40;99.90
3312;DHT22;1668;49.648;8.570;2023-06-04T11:13:41;24.30;99.90
3312;DHT22;1668;49.648;8.570;2023-06-04T11:16:15;24.30;99.90
3312;DHT22;1668;49.648;8.570;2023-06-04T11:18:43;24.40;99.90
3312;DHT22;1668;49.648;8.570;2023-06-04T11:21:11;24.50;99.90
3312;DHT22;1668;49.648;8.570;2023-06-04T11:23:40;24.60;99.90
3312;DHT22;1668;49.648;8.570;2023-06-04T11:26:08;24.80;99.90
3312;DHT22;1668;49.648;8.570;2023-06-04T11:28:35;25.00;99.90
3312;DHT22;1668;49.648;8.570;2023-06-04T11:31:02;25.00;99.90
3312;DHT22;1668;49.648;8.570;2023-06-04T11:33:41;25.10;99.90
3312;DHT22;1668;49.648;8.570;2023-06-04T11:36:10;25.20;99.90
3312;DHT22;1668;49.648;8.570;2023-06-04T11:38:37;25.20;99.90
3312;DHT22;1668;49.648;8.570;2023-06-04T11:41:04;25.20;99.90
3312;DHT22;1668;49.648;8.570;2023-06-04T11:43:32;25.30;99.90
3312;DHT22;1668;49.648;8.570;2023-06-04T11:46:05;25.20;99.90
3312;DHT22;1668;49.648;8.570;2023-06-04T11:48:33;25.20;99.90
3312;DHT22;1668;49.648;8.570;2023-06-04T11:51:06;25.10;99.90
3312;DHT22;1668;49.648;8.570;2023-06-04T11:53:36;25.10;99.90
3312;DHT22;1668;49.648;8.570;2023-06-04T11:56:04;25.00;99.90
3312;DHT22;1668;49.648;8.570;2023-06-04T11:58:32;24.90;99.90
3312;DHT22;1668;49.648;8.570;2023-06-04T12:00:59;24.80;99.90
3312;DHT22;1668;49.648;8.570;2023-06-04T12:03:35;24.90;99.90
3312;DHT22;1668;49.648;8.570;2023-06-04T12:06:14;25.00;99.90
3312;DHT22;1668;49.648;8.570;2023-06-04T12:08:51;25.00;99.90
3312;DHT22;1668;49.648;8.570;2023-06-04T12:11:28;24.90;99.90
3312;DHT22;1668;49.648;8.570;2023-06-04T12:13:57;24.90;99.90
3312;DHT22;1668;49.648;8.570;2023-06-04T12:16:24;24.90;99.90
3312;DHT22;1668;49.648;8.570;2023-06-04T12:18:51;25.00;99.90
3312;DHT22;1668;49.648;8.570;2023-06-04T12:21:21;25.00;99.90
3312;DHT22;1668;49.648;8.570;2023-06-04T12:23:54;25.10;99.90
3312;DHT22;1668;49.648;8.570;2023-06-04T12:26:22;25.30;99.90
3312;DHT22;1668;49.648;8.570;2023-06-04T12:29:00;25.50;99.90
3312;DHT22;1668;49.648;8.570;2023-06-04T12:31:26;25.70;99.90
3312;DHT22;1668;49.648;8.570;2023-06-04T12:33:58;25.80;99.90
3312;DHT22;1668;49.648;8.570;2023-06-04T12:36:25;26.00;99.90
3312;DHT22;1668;49.648;8.570;2023-06-04T12:38:53;26.00;99.90
3312;DHT22;1668;49.648;8.570;2023-06-04T12:41:20;26.00;99.90
3312;DHT22;1668;49.648;8.570;2023-06-04T12:43:47;26.20;99.90
3312;DHT22;1668;49.648;8.570;2023-06-04T12:46:14;26.40;99.90
3312;DHT22;1668;49.648;8.570;2023-06-04T12:48:41;26.50;99.90
3312;DHT22;1668;49.648;8.570;2023-06-04T12:51:08;26.60;99.90
3312;DHT22;1668;49.648;8.570;2023-06-04T12:53:38;26.40;99.90
3312;DHT22;1668;49.648;8.570;2023-06-04T12:56:07;26.70;99.90
3312;DHT22;1668;49.648;8.570;2023-06-04T12:58:34;26.80;99.90
3312;DHT22;1668;49.648;8.570;2023-06-04T13:01:01;26.80;99.90
3312;DHT22;1668;49.648;8.570;2023-06-04T13:03:29;26.80;99.90
3312;DHT22;1668;49.648;8.570;2023-06-04T13:05:57;26.90;99.90
3312;DHT22;1668;49.648;8.570;2023-06-04T13:08:24;27.00;99.90
3312;DHT22;1668;49.648;8.570;2023-06-04T13:10:52;27.10;99.90
3312;DHT22;1668;49.648;8.570;2023-06-04T13:13:20;27.20;99.90
3312;DHT22;1668;49.648;8.570;2023-06-04T13:15:47;27.30;99.90
3312;DHT22;1668;49.648;8.570;2023-06-04T13:18:14;27.40;99.90
3312;DHT22;1668;49.648;8.570;2023-06-04T13:20:41;27.40;99.90
3312;DHT22;1668;49.648;8.570;2023-06-04T13:23:08;27.50;99.90
3312;DHT22;1668;49.648;8.570;2023-06-04T13:25:37;27.60;99.90
3312;DHT22;1668;49.648;8.570;2023-06-04T13:28:05;27.40;99.90
3312;DHT22;1668;49.648;8.570;2023-06-04T13:30:35;27.50;99.90
3312;DHT22;1668;49.648;8.570;2023-06-04T13:33:02;27.60;99.90
3312;DHT22;1668;49.648;8.570;2023-06-04T13:35:29;27.70;99.90
3312;DHT22;1668;49.648;8.570;2023-06-04T13:37:56;27.90;99.90
3312;DHT22;1668;49.648;8.570;2023-06-04T13:40:23;28.00;99.90
3312;DHT22;1668;49.648;8.570;2023-06-04T13:42:49;28.00;99.90
3312;DHT22;1668;49.648;8.570;2023-06-04T13:45:16;28.20;99.90
3312;DHT22;1668;49.648;8.570;2023-06-04T13:47:47;28.30;99.90
3312;DHT22;1668;49.648;8.570;2023-06-04T13:50:14;28.40;99.90
3312;DHT22;1668;49.648;8.570;2023-06-04T13:52:41;28.20;99.90
3312;DHT22;1668;49.648;8.570;2023-06-04T13:55:09;28.10;99.90
3312;DHT22;1668;49.648;8.570;2023-06-04T13:57:36;28.20;99.90
3312;DHT22;1668;49.648;8.570;2023-06-04T14:00:03;28.40;99.90
3312;DHT22;1668;49.648;8.570;2023-06-04T14:02:32;28.40;99.90
3312;DHT22;1668;49.648;8.570;2023-06-04T14:05:00;28.40;99.90
3312;DHT22;1668;49.648;8.570;2023-06-04T14:07:27;28.70;99.90
3312;DHT22;1668;49.648;8.570;2023-06-04T14:09:54;28.90;99.90
3312;DHT22;1668;49.648;8.570;2023-06-04T14:12:21;29.00;99.90
3312;DHT22;1668;49.648;8.570;2023-06-04T14:14:48;29.10;99.90
3312;DHT22;1668;49.648;8.570;2023-06-04T14:17:15;29.10;99.90
3312;DHT22;1668;49.648;8.570;2023-06-04T14:19:42;29.40;99.90
3312;DHT22;1668;49.648;8.570;2023-06-04T14:22:11;29.60;99.90
3312;DHT22;1668;49.648;8.570;2023-06-04T14:24:40;29.40;99.90
3312;DHT22;1668;49.648;8.570;2023-06-04T14:27:07;29.20;99.90
3312;DHT22;1668;49.648;8.570;2023-06-04T14:29:35;29.50;99.90
3312;DHT22;1668;49.648;8.570;2023-06-04T14:32:03;29.80;99.90
3312;DHT22;1668;49.648;8.570;2023-06-04T14:34:30;29.90;99.90
3312;DHT22;1668;49.648;8.570;2023-06-04T14:36:57;29.80;99.90
3312;DHT22;1668;49.648;8.570;2023-06-04T14:39:26;29.60;99.90
3312;DHT22;1668;49.648;8.570;2023-06-04T14:41:54;29.60;99.90
3312;DHT22;1668;49.648;8.570;2023-06-04T14:44:21;29.90;99.90
3312;DHT22;1668;49.648;8.570;2023-06-04T14:46:49;29.80;99.90
3312;DHT22;1668;49.648;8.570;2023-06-04T14:49:17;29.70;99.90
3312;DHT22;1668;49.648;8.570;2023-06-04T14:51:45;30.00;99.90
3312;DHT22;1668;49.648;8.570;2023-06-04T14:54:12;30.10;99.90
3312;DHT22;1668;49.648;8.570;2023-06-04T14:56:40;30.30;99.90
3312;DHT22;1668;49.648;8.570;2023-06-04T14:59:07;30.50;99.90
3312;DHT22;1668;49.648;8.570;2023-06-04T15:01:36;30.60;99.90
3312;DHT22;1668;49.648;8.570;2023-06-04T15:04:04;30.70;99.90
3312;DHT22;1668;49.648;8.570;2023-06-04T15:06:31;31.00;99.90
3312;DHT22;1668;49.648;8.570;2023-06-04T15:08:59;31.00;99.90
3312;DHT22;1668;49.648;8.570;2023-06-04T15:11:26;30.50;99.90
3312;DHT22;1668;49.648;8.570;2023-06-04T15:13:54;30.70;99.90
3312;DHT22;1668;49.648;8.570;2023-06-04T15:16:21;31.00;99.90
3312;DHT22;1668;49.648;8.570;2023-06-04T15:18:48;31.40;99.90
3312;DHT22;1668;49.648;8.570;2023-06-04T15:21:15;31.60;99.90
3312;DHT22;1668;49.648;8.570;2023-06-04T15:23:42;31.60;99.90
3312;DHT22;1668;49.648;8.570;2023-06-04T15:26:14;31.00;99.90
3312;DHT22;1668;49.648;8.570;2023-06-04T15:28:41;31.00;99.90
3312;DHT22;1668;49.648;8.570;2023-06-04T15:31:09;30.70;99.90
3312;DHT22;1668;49.648;8.570;2023-06-04T15:33:36;30.70;99.90
3312;DHT22;1668;49.648;8.570;2023-06-04T15:36:03;30.50;99.90
3312;DHT22;1668;49.648;8.570;2023-06-04T15:38:30;30.60;99.90
3312;DHT22;1668;49.648;8.570;2023-06-04T15:40:58;30.60;99.90
3312;DHT22;1668;49.648;8.570;2023-06-04T15:43:25;30.80;99.90
3312;DHT22;1668;49.648;8.570;2023-06-04T15:45:52;30.70;99.90
3312;DHT22;1668;49.648;8.570;2023-06-04T15:48:20;30.50;99.90
3312;DHT22;1668;49.648;8.570;2023-06-04T15:50:48;30.40;99.90
3312;DHT22;1668;49.648;8.570;2023-06-04T15:53:15;30.60;99.90
3312;DHT22;1668;49.648;8.570;2023-06-04T15:55:43;30.80;99.90
3312;DHT22;1668;49.648;8.570;2023-06-04T15:58:10;30.90;99.90
3312;DHT22;1668;49.648;8.570;2023-06-04T16:00:37;30.70;99.90
3312;DHT22;1668;49.648;8.570;2023-06-04T16:03:04;30.60;99.90
3312;DHT22;1668;49.648;8.570;2023-06-04T16:05:32;30.80;99.90
3312;DHT22;1668;49.648;8.570;2023-06-04T16:07:59;31.30;99.90